createdAt,value
2019-04-14T00:00:42.771Z,55.45
2019-04-14T00:03:26.106Z,55.36
2019-04-14T00:06:01.120Z,55.70
2019-04-14T00:08:33.357Z,55.54
2019-04-14T00:11:06.190Z,55.63
2019-04-14T00:13:37.538Z,56.23
2019-04-14T00:16:09.584Z,56.20
2019-04-14T00:18:42.616Z,55.71
2019-04-14T00:21:15.152Z,55.82
2019-04-14T00:23:47.721Z,55.79
2019-04-14T00:26:29.498Z,55.88
2019-04-14T00:29:00.932Z,55.92
2019-04-14T00:31:32.938Z,55.92
2019-04-14T00:34:18.524Z,56.28
2019-04-14T00:37:12.740Z,56.14
2019-04-14T00:39:48.912Z,56.16
2019-04-14T00:42:38.755Z,56.20
2019-04-14T00:45:32.159Z,56.63
2019-04-14T00:48:09.751Z,56.83
2019-04-14T00:50:38.805Z,56.83
2019-04-14T00:53:10.263Z,57.15
2019-04-14T00:55:42.188Z,56.74
2019-04-14T00:58:14.800Z,57.11
2019-04-14T01:00:47.356Z,56.80
2019-04-14T01:03:19.856Z,56.82
2019-04-14T01:05:52.509Z,57.24
2019-04-14T01:08:24.943Z,57.70
2019-04-14T01:10:58.271Z,57.50
2019-04-14T01:13:31.116Z,57.26
2019-04-14T01:16:08.925Z,57.97
2019-04-14T01:18:36.499Z,58.17
2019-04-14T01:21:08.926Z,58.00
2019-04-14T01:23:41.228Z,58.31
2019-04-14T01:26:13.782Z,58.26
2019-04-14T01:28:46.175Z,58.51
2019-04-14T01:31:18.455Z,58.83
2019-04-14T01:33:50.937Z,59.08
2019-04-14T01:36:23.475Z,59.49
2019-04-14T01:38:55.750Z,59.53
2019-04-14T01:41:28.229Z,59.76
2019-04-14T01:44:00.307Z,60.48
2019-04-14T01:46:33.965Z,60.04
2019-04-14T01:49:05.111Z,60.42
2019-04-14T01:51:48.697Z,60.36
2019-04-14T01:54:43.059Z,60.66
2019-04-14T01:57:32.867Z,60.89
2019-04-14T02:00:29.202Z,60.96
2019-04-14T02:03:00.560Z,61.22
2019-04-14T02:05:32.106Z,61.01
2019-04-14T02:08:04.462Z,60.97
2019-04-14T02:10:36.897Z,61.23
2019-04-14T02:13:09.276Z,61.07
2019-04-14T02:15:42.059Z,61.13
2019-04-14T02:18:14.279Z,60.92
2019-04-14T02:20:46.744Z,61.25
2019-04-14T02:23:19.255Z,61.19
2019-04-14T02:25:51.472Z,61.27
2019-04-14T02:28:22.755Z,61.52
2019-04-14T02:31:03.395Z,61.40
2019-04-14T02:33:50.312Z,61.24
2019-04-14T02:36:32.269Z,61.26
2019-04-14T02:39:06.094Z,61.18
2019-04-14T02:42:04.865Z,61.18
2019-04-14T02:46:49.660Z,61.72
2019-04-14T02:49:16.843Z,61.45
2019-04-14T02:51:52.058Z,61.71
2019-04-14T02:54:36.934Z,61.74
2019-04-14T02:59:27.056Z,61.93
2019-04-14T03:02:18.929Z,61.94
2019-04-14T03:04:41.320Z,62.31
2019-04-14T03:07:14.312Z,61.83
2019-04-14T03:09:42.352Z,61.95
2019-04-14T03:12:16.667Z,62.09
2019-04-14T03:17:58.463Z,62.40
2019-04-14T03:20:27.946Z,62.03
2019-04-14T03:22:55.799Z,62.17
2019-04-14T03:25:37.515Z,62.33
2019-04-14T03:34:18.507Z,62.79
2019-04-14T03:37:16.359Z,62.99
2019-04-14T03:39:00.280Z,63.26
2019-04-14T03:41:29.210Z,63.22
2019-04-14T03:43:55.011Z,63.19
2019-04-14T03:46:39.320Z,63.35
2019-04-14T03:49:06.281Z,63.51
2019-04-14T03:51:45.077Z,63.62
2019-04-14T03:54:20.501Z,63.85
2019-04-14T03:57:08.314Z,63.77
2019-04-14T03:59:39.758Z,63.87
2019-04-14T04:02:11.821Z,63.72
2019-04-14T04:04:44.427Z,63.28
2019-04-14T04:07:17.107Z,63.21
2019-04-14T04:09:54.096Z,63.11
2019-04-14T04:12:27.160Z,63.08
2019-04-14T04:14:59.633Z,63.36
2019-04-14T04:17:38.936Z,63.36
2019-04-14T04:20:18.138Z,63.14
2019-04-14T04:23:10.283Z,63.14
2019-04-14T04:25:57.265Z,63.14
2019-04-14T04:28:51.802Z,62.98
2019-04-14T04:31:30.910Z,63.17
2019-04-14T04:34:09.821Z,63.36
2019-04-14T04:36:57.473Z,63.85
2019-04-14T04:39:36.416Z,63.29
2019-04-14T04:42:09.034Z,63.18
2019-04-14T04:44:40.634Z,63.33
2019-04-14T04:47:12.381Z,63.29
2019-04-14T04:49:44.766Z,63.52
2019-04-14T04:52:17.203Z,64.08
2019-04-14T04:54:49.592Z,63.84
2019-04-14T04:57:22.078Z,63.61
2019-04-14T04:59:53.935Z,63.50
2019-04-14T05:02:26.695Z,64.23
2019-04-14T05:04:59.121Z,62.95
2019-04-14T05:07:31.666Z,62.61
2019-04-14T05:10:26.345Z,63.09
2019-04-14T05:13:07.920Z,62.46
2019-04-14T05:15:59.863Z,61.82
2019-04-14T05:18:31.372Z,61.76
2019-04-14T05:21:03.841Z,62.28
2019-04-14T05:23:36.618Z,61.95
2019-04-14T05:26:09.216Z,62.23
2019-04-14T05:28:41.674Z,62.42
2019-04-14T05:31:14.222Z,62.61
2019-04-14T05:33:46.800Z,62.53
2019-04-14T05:36:19.283Z,62.52
2019-04-14T05:38:51.855Z,61.92
2019-04-14T05:41:24.415Z,61.78
2019-04-14T05:43:59.727Z,61.44
2019-04-14T05:46:29.602Z,61.34
2019-04-14T05:49:02.298Z,60.76
2019-04-14T05:51:34.965Z,60.72
2019-04-14T05:54:07.818Z,59.71
2019-04-14T05:56:40.661Z,60.41
2019-04-14T05:59:13.428Z,59.57
2019-04-14T06:01:44.987Z,60.26
2019-04-14T06:04:17.838Z,59.51
2019-04-14T06:06:49.941Z,59.08
2019-04-14T06:09:21.445Z,59.10
2019-04-14T06:11:53.161Z,58.28
2019-04-14T06:14:24.526Z,57.59
2019-04-14T06:16:55.854Z,57.65
2019-04-14T06:19:36.457Z,57.39
2019-04-14T06:22:00.357Z,57.91
2019-04-14T06:24:31.819Z,57.90
2019-04-14T06:27:03.290Z,57.66
2019-04-14T06:29:34.737Z,58.02
2019-04-14T06:32:16.228Z,56.53
2019-04-14T06:35:11.199Z,56.16
2019-04-14T06:37:55.431Z,55.74
2019-04-14T06:40:28.560Z,54.54
2019-04-14T06:42:59.918Z,54.47
2019-04-14T06:45:32.938Z,53.01
2019-04-14T06:48:06.971Z,52.79
2019-04-14T06:50:38.335Z,52.42
2019-04-14T06:53:10.155Z,53.35
2019-04-14T06:55:41.466Z,51.67
2019-04-14T06:58:12.961Z,52.12
2019-04-14T07:00:44.442Z,51.74
2019-04-14T07:03:15.938Z,51.32
2019-04-14T07:05:47.480Z,50.31
2019-04-14T07:08:19.136Z,49.33
2019-04-14T07:10:50.778Z,49.61
2019-04-14T07:13:22.219Z,49.47
2019-04-14T07:15:53.977Z,50.27
2019-04-14T07:18:25.427Z,49.69
2019-04-14T07:20:57.703Z,50.01
2019-04-14T07:23:29.255Z,49.24
2019-04-14T07:26:00.606Z,49.83
2019-04-14T07:28:32.062Z,49.12
2019-04-14T07:31:21.322Z,48.31
2019-04-14T07:34:14.505Z,46.96
2019-04-14T07:37:03.738Z,46.25
2019-04-14T07:39:45.822Z,46.90
2019-04-14T07:42:22.421Z,45.47
2019-04-14T07:45:02.409Z,47.23
2019-04-14T07:47:38.784Z,46.31
2019-04-14T07:50:29.913Z,46.72
2019-04-14T07:53:12.418Z,45.23
2019-04-14T07:56:01.235Z,44.29
2019-04-14T07:58:51.565Z,44.72
2019-04-14T08:01:28.380Z,43.70
2019-04-14T08:04:18.212Z,42.88
2019-04-14T08:06:51.252Z,44.12
2019-04-14T08:09:22.621Z,43.22
2019-04-14T08:11:54.041Z,43.10
2019-04-14T08:14:25.519Z,43.76
2019-04-14T08:16:56.907Z,44.39
2019-04-14T08:19:28.393Z,44.34
2019-04-14T08:21:59.936Z,43.41
2019-04-14T08:24:31.329Z,43.18
2019-04-14T08:27:02.679Z,43.14
2019-04-14T08:29:34.161Z,41.29
2019-04-14T08:32:05.700Z,43.07
2019-04-14T08:34:38.872Z,43.67
2019-04-14T08:37:10.494Z,42.68
2019-04-14T08:39:42.047Z,42.13
2019-04-14T08:42:25.792Z,41.60
2019-04-14T08:44:58.373Z,39.84
2019-04-14T08:47:49.533Z,39.49
2019-04-14T08:50:42.292Z,40.10
2019-04-14T08:53:22.227Z,37.62
2019-04-14T08:56:07.807Z,36.45
2019-04-14T08:58:55.307Z,36.71
2019-04-14T09:01:48.632Z,36.50
2019-04-14T09:04:30.859Z,34.64
2019-04-14T09:07:09.457Z,38.02
2019-04-14T09:09:43.463Z,39.59
2019-04-14T09:12:37.176Z,38.20
2019-04-14T09:15:09.958Z,38.28
2019-04-14T09:17:41.412Z,39.84
2019-04-14T09:20:15.912Z,41.77
2019-04-14T09:22:47.572Z,43.50
2019-04-14T09:25:20.047Z,41.04
2019-04-14T09:27:51.570Z,44.73
2019-04-14T09:30:22.983Z,41.41
2019-04-14T09:32:54.552Z,41.73
2019-04-14T09:35:25.923Z,40.49
2019-04-14T09:37:57.267Z,41.13
2019-04-14T09:40:28.944Z,38.93
2019-04-14T09:43:00.713Z,38.41
2019-04-14T09:45:32.091Z,38.12
2019-04-14T09:48:03.956Z,36.95
2019-04-14T09:50:35.532Z,37.03
2019-04-14T09:53:07.349Z,34.98
2019-04-14T09:55:39.410Z,34.70
2019-04-14T09:58:10.812Z,34.82
2019-04-14T10:00:42.342Z,33.59
2019-04-14T10:03:13.938Z,36.77
2019-04-14T10:05:45.362Z,38.64
2019-04-14T10:08:16.819Z,34.88
2019-04-14T10:10:48.385Z,33.50
2019-04-14T10:13:20.235Z,31.62
2019-04-14T10:15:51.917Z,31.95
2019-04-14T10:18:23.191Z,31.86
2019-04-14T10:20:54.634Z,31.82
2019-04-14T10:23:25.940Z,32.54
2019-04-14T10:25:57.883Z,34.55
2019-04-14T10:28:29.649Z,33.17
2019-04-14T10:31:01.137Z,32.02
2019-04-14T10:33:32.640Z,31.54
2019-04-14T10:36:04.505Z,30.51
2019-04-14T10:38:36.057Z,32.03
2019-04-14T10:41:07.536Z,34.53
2019-04-14T10:43:39.013Z,35.12
2019-04-14T10:46:11.293Z,34.40
2019-04-14T10:48:43.607Z,34.11
2019-04-14T10:51:15.367Z,33.16
2019-04-14T10:53:47.662Z,36.99
2019-04-14T10:56:19.480Z,36.65
2019-04-14T10:58:51.422Z,34.86
2019-04-14T11:01:23.662Z,34.15
2019-04-14T11:03:55.697Z,34.76
2019-04-14T11:06:34.944Z,36.63
2019-04-14T11:09:13.964Z,34.69
2019-04-14T11:11:46.352Z,34.05
2019-04-14T11:14:17.792Z,32.64
2019-04-14T11:16:49.204Z,32.43
2019-04-14T11:19:21.012Z,35.08
2019-04-14T11:21:53.168Z,33.70
2019-04-14T11:24:24.572Z,34.39
2019-04-14T11:26:56.748Z,33.23
2019-04-14T11:29:28.126Z,34.67
2019-04-14T11:32:17.188Z,31.58
2019-04-14T11:35:16.228Z,30.74
2019-04-14T11:38:05.254Z,33.35
2019-04-14T11:40:42.089Z,32.17
2019-04-14T11:43:13.464Z,33.33
2019-04-14T11:45:44.979Z,34.66
2019-04-14T11:48:16.543Z,32.36
2019-04-14T11:50:48.121Z,34.29
2019-04-14T11:53:20.530Z,31.84
2019-04-14T11:55:52.087Z,31.09
2019-04-14T11:58:23.961Z,31.71
2019-04-14T12:01:29.616Z,30.93
2019-04-14T12:04:08.938Z,31.99
2019-04-14T12:07:17.560Z,30.17
2019-04-14T12:09:55.644Z,30.82
2019-04-14T12:12:27.091Z,29.84
2019-04-14T12:14:58.477Z,30.69
2019-04-14T12:17:29.933Z,31.32
2019-04-14T12:20:01.900Z,32.08
2019-04-14T12:22:34.024Z,30.94
2019-04-14T12:25:07.542Z,30.09
2019-04-14T12:27:42.595Z,27.96
2019-04-14T12:30:20.516Z,29.65
2019-04-14T12:32:52.054Z,28.79
2019-04-14T12:35:24.083Z,28.52
2019-04-14T12:37:55.686Z,30.03
2019-04-14T12:40:27.431Z,29.75
2019-04-14T12:43:09.353Z,30.16
2019-04-14T12:46:05.947Z,31.99
2019-04-14T12:48:47.664Z,32.60
2019-04-14T12:51:26.477Z,33.13
2019-04-14T12:53:58.799Z,33.12
2019-04-14T12:56:30.395Z,32.96
2019-04-14T12:59:23.170Z,34.57
2019-04-14T13:02:28.790Z,35.61
2019-04-14T13:05:00.243Z,35.75
2019-04-14T13:07:31.747Z,36.96
2019-04-14T13:10:03.262Z,35.65
2019-04-14T13:12:34.748Z,35.59
2019-04-14T13:15:07.026Z,35.62
2019-04-14T13:17:39.423Z,33.47
2019-04-14T13:20:12.189Z,32.53
2019-04-14T13:22:44.177Z,31.96
2019-04-14T13:25:16.320Z,32.18
2019-04-14T13:27:48.998Z,31.84
2019-04-14T13:30:26.078Z,32.06
2019-04-14T13:32:58.001Z,31.85
2019-04-14T13:35:29.942Z,31.71
2019-04-14T13:38:01.745Z,31.36
2019-04-14T13:40:33.539Z,31.64
2019-04-14T13:43:05.151Z,32.45
2019-04-14T13:45:36.811Z,31.64
2019-04-14T13:48:08.486Z,32.60
2019-04-14T13:50:40.252Z,33.82
2019-04-14T13:53:11.805Z,31.79
2019-04-14T13:55:43.415Z,34.58
2019-04-14T13:58:15.490Z,34.16
2019-04-14T14:01:01.047Z,31.92
2019-04-14T14:03:34.266Z,32.92
2019-04-14T14:06:05.919Z,32.65
2019-04-14T14:08:39.299Z,33.41
2019-04-14T14:11:18.567Z,34.00
2019-04-14T14:13:59.256Z,34.51
2019-04-14T14:16:58.516Z,34.95
2019-04-14T14:19:37.685Z,35.88
2019-04-14T14:22:20.016Z,35.20
2019-04-14T14:25:06.837Z,35.14
2019-04-14T14:27:38.292Z,35.32
2019-04-14T14:30:12.621Z,34.99
2019-04-14T14:32:44.520Z,35.20
2019-04-14T14:35:15.984Z,35.42
2019-04-14T14:37:47.415Z,37.41
2019-04-14T14:40:18.987Z,36.70
2019-04-14T14:42:50.415Z,35.43
2019-04-14T14:45:35.816Z,36.54
2019-04-14T14:48:25.846Z,36.80
2019-04-14T14:51:11.385Z,35.80
2019-04-14T14:53:42.815Z,36.15
2019-04-14T14:56:14.270Z,35.93
2019-04-14T14:58:45.733Z,34.65
2019-04-14T15:01:17.560Z,35.20
2019-04-14T15:03:49.237Z,35.79
2019-04-14T15:06:21.047Z,36.65
2019-04-14T15:08:52.728Z,36.34
2019-04-14T15:11:24.098Z,36.26
2019-04-14T15:13:55.814Z,37.38
2019-04-14T15:16:27.226Z,38.85
2019-04-14T15:18:58.512Z,38.87
2019-04-14T15:21:29.969Z,38.70
2019-04-14T15:24:01.465Z,38.39
2019-04-14T15:26:32.929Z,39.16
2019-04-14T15:29:04.460Z,40.08
2019-04-14T15:31:36.014Z,38.88
2019-04-14T15:34:10.536Z,39.14
2019-04-14T15:36:41.065Z,39.27
2019-04-14T15:39:13.012Z,39.27
2019-04-14T15:41:44.968Z,38.72
2019-04-14T15:44:16.680Z,39.07
2019-04-14T15:46:48.153Z,39.37
2019-04-14T15:49:19.533Z,38.93
2019-04-14T15:51:51.014Z,39.45
2019-04-14T15:54:25.260Z,40.20
2019-04-14T15:57:01.637Z,39.78
2019-04-14T15:59:43.544Z,40.50
2019-04-14T16:02:27.506Z,41.66
2019-04-14T16:05:05.973Z,42.15
2019-04-14T16:07:54.094Z,41.64
2019-04-14T16:10:46.113Z,41.08
2019-04-14T16:13:23.032Z,41.63
2019-04-14T16:16:04.256Z,42.65
2019-04-14T16:18:45.530Z,42.12
2019-04-14T16:21:16.912Z,42.37
2019-04-14T16:23:50.900Z,42.90
2019-04-14T16:26:40.422Z,44.17
2019-04-14T16:29:21.534Z,44.79
2019-04-14T16:32:08.167Z,45.29
2019-04-14T16:34:52.349Z,45.58
2019-04-14T16:37:23.799Z,46.70
2019-04-14T16:39:55.843Z,47.02
2019-04-14T16:42:28.311Z,47.38
2019-04-14T16:44:59.992Z,47.88
2019-04-14T16:47:31.393Z,48.61
2019-04-14T16:50:02.904Z,49.09
2019-04-14T16:52:47.090Z,49.44
2019-04-14T16:55:37.386Z,49.62
2019-04-14T16:58:39.718Z,49.75
2019-04-14T17:01:14.499Z,50.12
2019-04-14T17:03:45.826Z,50.71
2019-04-14T17:06:18.105Z,51.04
2019-04-14T17:08:49.927Z,51.00
2019-04-14T17:11:21.522Z,51.13
2019-04-14T17:14:00.579Z,51.54
2019-04-14T17:17:07.273Z,51.73
2019-04-14T17:20:09.615Z,51.13
2019-04-14T17:23:09.407Z,51.67
2019-04-14T17:26:09.402Z,51.36
2019-04-14T17:29:03.777Z,51.77
2019-04-14T17:31:53.062Z,52.32
2019-04-14T17:34:33.594Z,53.00
2019-04-14T17:37:13.104Z,53.51
2019-04-14T17:40:01.832Z,54.25
2019-04-14T17:42:52.630Z,54.24
2019-04-14T17:45:33.022Z,54.82
2019-04-14T17:48:29.688Z,55.13
2019-04-14T17:51:06.072Z,55.40
2019-04-14T17:53:59.908Z,55.59
2019-04-14T17:56:41.554Z,55.76
2019-04-14T17:59:17.251Z,56.16
2019-04-14T18:02:13.422Z,56.68
2019-04-14T18:05:16.206Z,56.68
2019-04-14T18:07:56.960Z,56.78
2019-04-14T18:10:35.456Z,56.92
2019-04-14T18:13:35.279Z,57.48
2019-04-14T18:16:22.928Z,57.74
2019-04-14T18:19:17.460Z,58.06
2019-04-14T18:21:48.911Z,58.05
2019-04-14T18:24:20.461Z,58.57
2019-04-14T18:26:52.065Z,59.10
2019-04-14T18:29:35.268Z,59.07
2019-04-14T18:32:24.713Z,58.92
2019-04-14T18:35:18.403Z,59.35
2019-04-14T18:38:15.514Z,59.44
2019-04-14T18:40:57.211Z,59.47
2019-04-14T18:43:46.674Z,59.65
2019-04-14T18:46:39.678Z,60.04
2019-04-14T18:49:34.807Z,60.02
2019-04-14T18:52:25.535Z,60.35
2019-04-14T18:55:16.865Z,60.16
2019-04-14T18:57:59.478Z,59.97
2019-04-14T19:00:38.891Z,60.22
2019-04-14T19:03:10.305Z,60.28
2019-04-14T19:05:42.067Z,60.39
2019-04-14T19:08:13.551Z,60.33
2019-04-14T19:10:49.985Z,60.69
2019-04-14T19:13:25.748Z,60.99
2019-04-14T19:16:07.361Z,61.16
2019-04-14T19:18:43.383Z,61.40
2019-04-14T19:21:16.985Z,61.15
2019-04-14T19:23:48.814Z,61.43
2019-04-14T19:26:20.274Z,61.76
2019-04-14T19:28:51.864Z,61.48
2019-04-14T19:31:23.342Z,61.72
2019-04-14T19:33:55.183Z,61.81
2019-04-14T19:36:26.678Z,61.65
2019-04-14T19:38:58.488Z,61.72
2019-04-14T19:41:29.921Z,62.29
2019-04-14T19:44:01.987Z,62.35
2019-04-14T19:46:33.559Z,62.48
2019-04-14T19:49:05.126Z,62.69
2019-04-14T19:51:41.169Z,62.52
2019-04-14T19:54:12.764Z,62.69
2019-04-14T19:56:44.554Z,62.88
2019-04-14T19:59:17.084Z,62.73
2019-04-14T20:01:48.610Z,62.73
2019-04-14T20:04:20.046Z,62.60
2019-04-14T20:06:51.424Z,62.54
2019-04-14T20:09:24.043Z,62.84
2019-04-14T20:11:55.590Z,62.96
2019-04-14T20:14:27.391Z,62.40
2019-04-14T20:17:17.949Z,62.75
2019-04-14T20:20:04.180Z,63.64
2019-04-14T20:23:00.733Z,63.73
2019-04-14T20:25:47.660Z,64.47
2019-04-14T20:28:37.999Z,63.93
2019-04-14T20:31:24.504Z,64.02
2019-04-14T20:33:55.993Z,63.73
2019-04-14T20:36:29.020Z,63.98
2019-04-14T20:39:00.853Z,64.35
2019-04-14T20:41:34.426Z,64.35
2019-04-14T20:44:05.896Z,64.86
2019-04-14T20:46:38.236Z,65.08
2019-04-14T20:49:09.896Z,65.29
2019-04-14T20:51:41.500Z,65.43
2019-04-14T20:54:12.995Z,65.44
2019-04-14T20:56:44.449Z,66.34
2019-04-14T20:59:15.870Z,65.96
2019-04-14T21:01:53.837Z,65.91
2019-04-14T21:04:32.589Z,65.82
2019-04-14T21:07:41.084Z,66.34
2019-04-14T21:10:23.134Z,66.21
2019-04-14T21:13:01.944Z,66.64
2019-04-14T21:15:41.780Z,66.77
2019-04-14T21:18:32.490Z,67.11
2019-04-14T21:21:21.713Z,67.13
2019-04-14T21:23:57.964Z,67.11
2019-04-14T21:26:46.310Z,67.10
2019-04-14T21:29:39.404Z,67.16
2019-04-14T21:32:26.234Z,67.30
2019-04-14T21:35:16.731Z,66.89
2019-04-14T21:37:54.281Z,67.57
2019-04-14T21:40:51.000Z,67.86
2019-04-14T21:43:23.611Z,68.41
2019-04-14T21:45:55.345Z,68.86
2019-04-14T21:48:26.719Z,69.11
2019-04-14T21:50:58.112Z,69.04
2019-04-14T21:53:29.428Z,69.03
2019-04-14T21:56:12.788Z,69.35
2019-04-14T21:58:52.058Z,69.58
2019-04-14T22:01:53.589Z,69.69
2019-04-14T22:04:46.342Z,69.84
2019-04-14T22:07:35.733Z,69.90
2019-04-14T22:10:33.603Z,69.91
2019-04-14T22:13:05.470Z,70.27
2019-04-14T22:15:36.871Z,70.35
2019-04-14T22:18:08.589Z,70.17
2019-04-14T22:20:40.308Z,70.08
2019-04-14T22:23:12.359Z,69.95
2019-04-14T22:25:43.801Z,70.28
2019-04-14T22:28:15.330Z,70.90
2019-04-14T22:30:46.797Z,70.98
2019-04-14T22:33:18.489Z,71.58
2019-04-14T22:35:50.048Z,71.54
2019-04-14T22:38:22.053Z,71.77
2019-04-14T22:40:53.547Z,71.77
2019-04-14T22:43:24.958Z,71.63
2019-04-14T22:45:56.454Z,71.77
2019-04-14T22:48:28.078Z,71.55
2019-04-14T22:50:59.538Z,71.66
2019-04-14T22:53:30.991Z,71.69
2019-04-14T22:56:02.354Z,71.59
2019-04-14T22:58:33.652Z,71.16
2019-04-14T23:01:33.639Z,70.70
2019-04-14T23:04:25.305Z,70.87
2019-04-14T23:07:11.737Z,71.49
2019-04-14T23:09:50.579Z,71.73
2019-04-14T23:12:40.813Z,71.40
2019-04-14T23:15:31.550Z,71.30
2019-04-14T23:18:16.384Z,71.25
2019-04-14T23:21:15.726Z,71.35
2019-04-14T23:23:54.563Z,71.36
2019-04-14T23:26:26.369Z,71.57
2019-04-14T23:28:57.870Z,71.77
2019-04-14T23:31:29.407Z,71.78
2019-04-14T23:34:00.917Z,71.91
2019-04-14T23:36:32.473Z,71.63
2019-04-14T23:39:06.257Z,71.29
2019-04-14T23:41:38.845Z,71.54
2019-04-14T23:44:10.245Z,71.57
2019-04-14T23:46:42.045Z,71.55
2019-04-14T23:49:13.521Z,71.42
2019-04-14T23:51:45.031Z,71.85
2019-04-14T23:54:16.415Z,72.18
2019-04-14T23:56:47.850Z,72.37
2019-04-14T23:59:19.440Z,72.62
